Time;durP1;ratioP1;P1;durP2;ratioP2;P2;SDS_P1;SDS_P2;PMS_P1;PMS_P2;Temp;Humidity;BMP_temperature;BMP_pressure;BME280_temperature;BME280_humidity;BME280_pressure;Samples;Min_cycle;Max_cycle;Signal;HPM_P1;HPM_P2
2020/12/17 00:00:35;;;;;;;10.38;7.03;;;9.80;99.90;;;;;;4905690;29;20028;-91
2020/12/17 00:03:03;;;;;;;11.18;7.50;;;9.80;99.90;;;;;;4904217;29;20067;-90
2020/12/17 00:05:31;;;;;;;11.18;6.88;;;9.70;99.90;;;;;;4903034;29;20124;-90
2020/12/17 00:07:56;;;;;;;13.40;7.32;;;9.80;99.90;;;;;;4905634;29;20028;-91
2020/12/17 00:10:23;;;;;;;14.77;8.10;;;9.80;99.90;;;;;;4939744;29;20449;-92
2020/12/17 00:12:51;;;;;;;15.15;7.10;;;9.80;99.90;;;;;;4941413;29;20024;-92
2020/12/17 00:15:19;;;;;;;10.90;7.68;;;9.80;99.90;;;;;;4941240;29;20039;-92
2020/12/17 00:17:47;;;;;;;10.00;6.85;;;9.80;99.90;;;;;;4940910;29;20035;-92
2020/12/17 00:20:15;;;;;;;9.88;7.32;;;9.80;99.90;;;;;;4941665;29;20020;-92
2020/12/17 00:22:41;;;;;;;9.73;7.57;;;9.80;99.90;;;;;;4940338;29;20106;-92
2020/12/17 00:25:09;;;;;;;12.48;7.60;;;9.70;99.90;;;;;;4928941;29;20079;-93
2020/12/17 00:27:42;;;;;;;12.27;7.35;;;9.80;99.90;;;;;;4941456;29;20059;-92
2020/12/17 00:30:11;;;;;;;11.05;7.28;;;9.80;99.90;;;;;;4941617;29;20083;-91
2020/12/17 00:32:40;;;;;;;12.38;7.32;;;9.70;99.90;;;;;;4940211;29;20391;-92
2020/12/17 00:35:15;;;;;;;10.82;7.18;;;9.70;99.90;;;;;;4924514;29;20035;-92
2020/12/17 00:37:41;;;;;;;12.57;7.78;;;9.70;99.90;;;;;;4939262;29;20059;-94
2020/12/17 00:40:12;;;;;;;12.18;7.45;;;9.60;99.90;;;;;;4941076;29;20118;-91
2020/12/17 00:42:50;;;;;;;10.63;7.65;;;9.60;99.90;;;;;;4917771;29;20032;-90
2020/12/17 00:45:17;;;;;;;9.18;7.13;;;9.60;99.90;;;;;;4900460;29;20064;-94
2020/12/17 00:47:44;;;;;;;12.63;7.60;;;9.50;99.90;;;;;;4904120;29;20040;-94
2020/12/17 00:50:11;;;;;;;10.45;7.00;;;9.50;99.90;;;;;;4903990;29;20028;-93
2020/12/17 00:52:39;;;;;;;10.73;7.53;;;9.60;99.90;;;;;;4904990;29;20135;-95
2020/12/17 00:55:11;;;;;;;10.35;6.80;;;9.70;99.90;;;;;;4882535;29;20087;-91
2020/12/17 00:57:38;;;;;;;11.10;6.80;;;9.60;99.90;;;;;;4865253;29;20482;-93
2020/12/17 01:00:07;;;;;;;10.52;6.78;;;9.60;99.90;;;;;;4865613;29;20033;-93
2020/12/17 01:02:46;;;;;;;12.00;7.45;;;9.70;99.90;;;;;;4895881;29;20100;-93
2020/12/17 01:05:11;;;;;;;10.73;6.95;;;9.60;99.90;;;;;;4884202;29;20074;-93
2020/12/17 01:07:38;;;;;;;10.15;6.63;;;9.70;99.90;;;;;;4885559;29;20049;-93
2020/12/17 01:10:05;;;;;;;10.20;6.45;;;9.80;99.90;;;;;;4850546;29;20040;-93
2020/12/17 01:12:33;;;;;;;9.18;6.68;;;9.80;99.90;;;;;;4867926;29;20102;-92
2020/12/17 01:14:58;;;;;;;9.38;7.03;;;9.80;99.90;;;;;;4887777;29;20040;-93
2020/12/17 01:17:25;;;;;;;9.23;6.43;;;9.80;99.90;;;;;;4905411;29;20229;-93
2020/12/17 01:19:54;;;;;;;7.65;5.25;;;9.80;99.90;;;;;;4928967;29;20132;-91
2020/12/17 01:22:20;;;;;;;10.13;6.15;;;9.80;99.90;;;;;;4904847;29;20040;-92
2020/12/17 01:24:46;;;;;;;10.98;5.47;;;9.90;99.90;;;;;;4923557;28;20055;-92
2020/12/17 01:27:12;;;;;;;8.68;5.65;;;9.90;99.90;;;;;;4923364;28;20052;-93
2020/12/17 01:29:37;;;;;;;9.05;5.40;;;10.00;99.90;;;;;;4924319;28;20076;-91
2020/12/17 01:32:03;;;;;;;7.38;4.85;;;10.00;99.90;;;;;;4901072;29;20032;-89
2020/12/17 01:34:30;;;;;;;8.68;5.53;;;10.10;99.90;;;;;;4920456;29;20068;-93
2020/12/17 01:37:00;;;;;;;7.80;5.05;;;10.10;99.90;;;;;;4898677;29;20047;-89
2020/12/17 01:39:26;;;;;;;12.90;4.67;;;10.20;99.90;;;;;;4895032;29;20043;-91
2020/12/17 01:41:54;;;;;;;9.63;5.10;;;10.20;99.90;;;;;;4900821;29;20293;-93
2020/12/17 01:44:19;;;;;;;9.02;5.50;;;10.20;99.90;;;;;;4885169;29;20119;-93
2020/12/17 01:46:47;;;;;;;9.50;6.22;;;10.20;99.90;;;;;;4891758;29;20093;-95
2020/12/17 01:49:17;;;;;;;11.05;5.97;;;10.10;99.90;;;;;;4882375;29;20053;-94
2020/12/17 01:51:43;;;;;;;10.98;6.03;;;10.10;99.90;;;;;;4881589;29;20097;-92
2020/12/17 01:54:09;;;;;;;9.85;5.88;;;10.10;99.90;;;;;;4866674;29;20509;-93
2020/12/17 01:56:38;;;;;;;9.05;6.18;;;10.10;99.90;;;;;;4883121;29;20029;-92
2020/12/17 01:59:25;;;;;;;9.77;6.20;;;10.10;99.90;;;;;;4883871;29;20067;-92
2020/12/17 02:01:53;;;;;;;10.13;6.43;;;10.10;99.90;;;;;;4884484;29;20112;-93
2020/12/17 02:04:22;;;;;;;8.15;5.85;;;10.10;99.90;;;;;;4884965;29;20044;-93
2020/12/17 02:06:52;;;;;;;10.50;6.75;;;10.10;99.90;;;;;;4890092;29;20052;-94
2020/12/17 02:09:22;;;;;;;11.98;7.05;;;10.10;99.90;;;;;;4893402;29;20037;-92
2020/12/17 02:11:57;;;;;;;9.60;6.18;;;10.10;99.90;;;;;;4928640;29;20044;-92
2020/12/17 02:17:32;;;;;;;8.25;6.05;;;10.00;99.90;;;;;;4925402;29;20131;-92
2020/12/17 02:19:58;;;;;;;8.70;6.13;;;10.10;99.90;;;;;;4910464;29;20059;-92
2020/12/17 02:22:26;;;;;;;9.80;6.10;;;10.00;99.90;;;;;;4910439;29;20025;-91
2020/12/17 02:24:56;;;;;;;9.02;5.05;;;10.10;99.90;;;;;;4907648;29;20029;-91
2020/12/17 02:27:23;;;;;;;6.63;5.00;;;10.10;99.90;;;;;;4885429;29;20085;-93
2020/12/17 02:29:48;;;;;;;8.80;6.13;;;10.10;99.90;;;;;;4859389;29;20475;-93
2020/12/17 02:32:15;;;;;;;8.95;5.72;;;10.10;99.90;;;;;;4875148;29;20041;-92
2020/12/17 02:34:44;;;;;;;8.95;5.55;;;10.00;99.90;;;;;;4892267;29;20057;-92
2020/12/17 02:37:10;;;;;;;7.30;5.55;;;10.00;99.90;;;;;;4882425;29;20043;-93
2020/12/17 02:39:36;;;;;;;10.10;5.57;;;10.00;99.90;;;;;;4907085;29;20024;-93
2020/12/17 02:42:04;;;;;;;8.27;5.82;;;10.00;99.90;;;;;;4885421;29;20100;-92
2020/12/17 02:44:32;;;;;;;7.45;4.78;;;10.00;99.90;;;;;;4885335;29;20080;-91
2020/12/17 02:47:01;;;;;;;5.93;4.90;;;9.90;99.90;;;;;;4869792;29;20235;-92
2020/12/17 02:49:27;;;;;;;8.68;5.18;;;10.00;99.90;;;;;;4854646;29;20098;-93
2020/12/17 02:51:53;;;;;;;9.52;5.32;;;10.00;99.90;;;;;;4880807;29;20049;-93
2020/12/17 02:54:18;;;;;;;7.68;5.10;;;9.90;99.90;;;;;;4857701;29;20041;-93
2020/12/17 02:56:44;;;;;;;7.35;5.47;;;9.90;99.90;;;;;;4864153;29;20053;-92
2020/12/17 02:59:10;;;;;;;8.73;5.18;;;9.90;99.90;;;;;;4872115;29;20454;-93
2020/12/17 03:01:41;;;;;;;8.27;5.38;;;9.90;99.90;;;;;;4916707;29;20068;-92
2020/12/17 03:04:06;;;;;;;7.47;5.53;;;9.80;99.90;;;;;;4926202;29;20028;-91
2020/12/17 03:06:33;;;;;;;11.55;6.00;;;9.80;99.90;;;;;;4920289;29;20055;-93
2020/12/17 03:09:00;;;;;;;9.15;5.47;;;9.80;99.90;;;;;;4904929;29;20020;-93
2020/12/17 03:11:28;;;;;;;6.78;5.07;;;9.80;99.90;;;;;;4920507;29;20059;-91
2020/12/17 03:13:54;;;;;;;7.80;5.13;;;9.80;99.90;;;;;;4952196;29;20055;-93
2020/12/17 03:16:22;;;;;;;8.00;5.05;;;9.80;99.90;;;;;;4951319;29;20024;-92
2020/12/17 03:18:51;;;;;;;8.55;5.65;;;9.80;99.90;;;;;;4949969;29;20036;-92
2020/12/17 03:21:17;;;;;;;9.38;5.43;;;9.80;99.90;;;;;;4943148;29;20036;-92
2020/12/17 03:23:43;;;;;;;7.93;5.43;;;9.80;99.90;;;;;;4944350;29;20031;-92
2020/12/17 03:26:11;;;;;;;9.40;5.30;;;9.70;99.90;;;;;;4943133;29;20023;-90
2020/12/17 03:28:36;;;;;;;6.80;4.60;;;9.70;99.90;;;;;;4946705;29;20078;-92
2020/12/17 03:31:03;;;;;;;6.95;4.78;;;9.70;99.90;;;;;;4936111;29;20409;-93
2020/12/17 03:33:28;;;;;;;7.43;5.35;;;9.70;99.90;;;;;;4941084;29;20091;-91
2020/12/17 03:35:54;;;;;;;7.28;5.35;;;9.70;99.90;;;;;;4940535;29;20024;-92
2020/12/17 03:38:20;;;;;;;8.15;5.43;;;9.80;99.90;;;;;;4939917;29;20115;-91
2020/12/17 03:40:46;;;;;;;9.95;5.50;;;9.80;99.90;;;;;;4940969;29;20086;-92
2020/12/17 03:43:11;;;;;;;6.78;5.10;;;9.80;99.90;;;;;;4940255;29;20039;-92
2020/12/17 03:45:37;;;;;;;10.43;5.78;;;9.80;99.90;;;;;;4924215;29;20038;-90
2020/12/17 03:48:03;;;;;;;9.13;6.20;;;9.90;99.90;;;;;;4939331;29;20299;-92
2020/12/17 03:50:29;;;;;;;8.90;5.65;;;9.90;99.90;;;;;;4940026;29;20106;-91
2020/12/17 03:52:55;;;;;;;11.80;6.60;;;9.90;99.90;;;;;;4938778;29;20058;-90
2020/12/17 03:55:21;;;;;;;7.72;5.15;;;9.90;99.90;;;;;;4938578;29;20484;-92
2020/12/17 03:57:46;;;;;;;8.32;5.00;;;10.00;99.90;;;;;;4939401;29;20042;-91
2020/12/17 04:00:15;;;;;;;7.60;5.28;;;10.00;99.90;;;;;;4939648;29;20027;-92
2020/12/17 04:02:40;;;;;;;8.65;4.82;;;10.00;99.90;;;;;;4949681;29;20095;-91
2020/12/17 04:05:07;;;;;;;6.35;4.75;;;10.00;99.90;;;;;;4948407;29;20375;-91
2020/12/17 04:07:34;;;;;;;7.88;5.13;;;10.00;99.90;;;;;;4929147;29;20140;-92
2020/12/17 04:10:00;;;;;;;7.82;5.60;;;10.00;99.90;;;;;;4948922;29;20028;-93
2020/12/17 04:12:26;;;;;;;6.50;5.03;;;10.00;99.90;;;;;;4953464;29;20035;-94
2020/12/17 04:14:51;;;;;;;7.10;5.28;;;10.00;99.90;;;;;;4941997;29;20486;-93
2020/12/17 04:17:20;;;;;;;8.02;5.35;;;10.00;99.90;;;;;;4939286;29;20369;-93
2020/12/17 04:19:46;;;;;;;11.55;5.20;;;9.90;99.90;;;;;;4939568;29;20138;-94
2020/12/17 04:22:16;;;;;;;12.02;6.05;;;10.00;99.90;;;;;;4940091;29;20461;-93
2020/12/17 04:24:47;;;;;;;7.93;5.45;;;9.90;99.90;;;;;;4924330;29;20036;-94
2020/12/17 04:27:13;;;;;;;8.80;5.20;;;9.90;99.90;;;;;;4939961;29;20442;-94
2020/12/17 04:29:39;;;;;;;8.57;5.57;;;10.00;99.90;;;;;;4939411;29;20036;-94
2020/12/17 04:32:05;;;;;;;8.85;6.40;;;9.90;99.90;;;;;;4924266;29;20458;-95
2020/12/17 04:34:31;;;;;;;8.75;5.53;;;10.00;99.90;;;;;;4919799;29;20044;-95
2020/12/17 04:36:57;;;;;;;9.02;5.45;;;9.90;99.90;;;;;;4920439;29;20476;-93
2020/12/17 04:39:24;;;;;;;6.93;5.10;;;9.90;99.90;;;;;;4918792;29;20497;-91
2020/12/17 04:41:51;;;;;;;8.18;5.07;;;10.00;99.90;;;;;;4901820;29;20036;-90
2020/12/17 04:44:18;;;;;;;14.77;6.55;;;10.00;99.90;;;;;;4918185;29;20024;-92
2020/12/17 04:46:55;;;;;;;9.90;6.30;;;10.00;99.90;;;;;;4905617;29;20088;-92
2020/12/17 04:49:33;;;;;;;9.35;5.82;;;10.00;99.90;;;;;;4927714;29;20059;-90
2020/12/17 04:52:04;;;;;;;6.65;5.18;;;10.00;99.90;;;;;;4899583;29;20029;-92
2020/12/17 04:54:33;;;;;;;10.13;5.25;;;10.00;99.90;;;;;;4885582;29;20022;-92
2020/12/17 04:57:11;;;;;;;10.50;5.93;;;10.00;99.90;;;;;;4874202;29;20232;-91
2020/12/17 04:59:44;;;;;;;10.57;6.30;;;10.00;99.90;;;;;;4848407;29;20047;-92
2020/12/17 05:02:11;;;;;;;7.35;4.82;;;10.10;99.90;;;;;;4870792;29;20121;-90
2020/12/17 05:04:40;;;;;;;9.15;6.40;;;10.10;99.90;;;;;;4863813;29;20050;-90
2020/12/17 05:07:08;;;;;;;7.90;5.63;;;10.10;99.90;;;;;;4879322;29;20047;-91
2020/12/17 05:09:37;;;;;;;8.30;5.45;;;10.10;99.90;;;;;;4896750;29;20171;-93
2020/12/17 05:12:04;;;;;;;7.65;5.20;;;10.10;99.90;;;;;;4883341;29;20024;-92
2020/12/17 05:14:31;;;;;;;10.07;5.75;;;10.10;99.90;;;;;;4884817;29;20056;-92
2020/12/17 05:16:58;;;;;;;8.52;5.68;;;10.20;99.90;;;;;;4884159;29;20065;-91
2020/12/17 05:19:26;;;;;;;6.75;5.30;;;10.20;99.90;;;;;;4885836;29;20021;-92
2020/12/17 05:21:57;;;;;;;7.50;5.30;;;10.20;99.90;;;;;;4901616;29;20061;-91
2020/12/17 05:24:23;;;;;;;9.30;5.07;;;10.20;99.90;;;;;;4885651;29;20025;-91
2020/12/17 05:26:54;;;;;;;9.00;5.28;;;10.30;99.90;;;;;;4884953;29;20017;-91
2020/12/17 05:29:21;;;;;;;11.13;5.80;;;10.30;99.90;;;;;;4894720;29;20024;-91
2020/12/17 05:31:47;;;;;;;7.93;5.53;;;10.30;99.90;;;;;;4936930;29;20073;-92
2020/12/17 05:34:13;;;;;;;9.60;5.55;;;10.30;99.90;;;;;;4932653;29;20068;-91
2020/12/17 05:36:44;;;;;;;9.55;5.40;;;10.30;99.90;;;;;;4915145;29;20032;-94
2020/12/17 05:39:11;;;;;;;6.23;4.83;;;10.30;99.90;;;;;;4933511;29;20024;-94
2020/12/17 05:41:40;;;;;;;12.88;6.75;;;10.40;99.90;;;;;;4937276;29;20032;-94
2020/12/17 05:44:13;;;;;;;12.35;6.82;;;10.30;99.90;;;;;;4918586;29;20028;-92
2020/12/17 05:46:43;;;;;;;8.55;6.03;;;10.30;99.90;;;;;;4927542;29;20025;-92
2020/12/17 05:49:32;;;;;;;10.95;6.60;;;10.30;99.90;;;;;;4925575;29;20107;-92
2020/12/17 05:52:10;;;;;;;11.25;6.75;;;10.20;99.90;;;;;;4931115;29;20032;-92
2020/12/17 05:54:38;;;;;;;12.13;5.28;;;10.20;99.90;;;;;;4925889;29;20376;-89
2020/12/17 05:57:13;;;;;;;9.90;6.28;;;10.30;99.90;;;;;;4922535;29;20063;-89
2020/12/17 06:00:03;;;;;;;9.00;5.78;;;10.30;99.90;;;;;;4928757;29;20573;-91
2020/12/17 06:02:30;;;;;;;9.52;6.03;;;10.30;99.90;;;;;;4924938;29;20048;-91
2020/12/17 06:05:10;;;;;;;7.63;5.70;;;10.30;99.90;;;;;;4927041;29;20032;-91
2020/12/17 06:07:48;;;;;;;9.68;6.47;;;10.30;99.90;;;;;;4904911;29;20128;-93
2020/12/17 06:10:25;;;;;;;9.00;5.72;;;10.30;99.90;;;;;;4890352;29;20033;-93
2020/12/17 06:12:54;;;;;;;8.18;5.82;;;10.30;99.90;;;;;;4906409;29;20380;-94
2020/12/17 06:15:23;;;;;;;8.93;6.00;;;10.30;99.90;;;;;;4907581;29;20131;-93
2020/12/17 06:17:54;;;;;;;13.70;6.22;;;10.40;99.90;;;;;;4926455;29;20044;-93
2020/12/17 06:20:21;;;;;;;10.57;5.85;;;10.40;99.90;;;;;;4922865;29;20028;-92
2020/12/17 06:23:02;;;;;;;9.13;6.47;;;10.40;99.90;;;;;;4909615;29;20036;-92
2020/12/17 06:25:30;;;;;;;10.63;6.35;;;10.40;99.90;;;;;;4909909;29;20058;-92
2020/12/17 06:27:57;;;;;;;10.32;6.40;;;10.40;99.90;;;;;;4923653;29;20076;-93
2020/12/17 06:30:27;;;;;;;10.88;6.97;;;10.40;99.90;;;;;;4916370;29;20032;-90
2020/12/17 06:33:07;;;;;;;7.90;6.28;;;10.30;99.90;;;;;;4909322;29;20060;-90
2020/12/17 06:36:02;;;;;;;11.18;7.30;;;10.30;99.90;;;;;;4887850;29;20355;-90
2020/12/17 06:38:30;;;;;;;10.00;7.07;;;10.20;99.90;;;;;;4931426;28;20036;-93
2020/12/17 06:40:56;;;;;;;14.88;8.20;;;10.10;99.90;;;;;;4956771;29;20031;-93
2020/12/17 06:43:34;;;;;;;16.98;8.48;;;10.00;99.90;;;;;;4951770;29;20023;-94
2020/12/17 06:46:01;;;;;;;9.27;7.13;;;9.90;99.90;;;;;;4953525;29;20019;-94
2020/12/17 06:48:41;;;;;;;16.70;7.97;;;9.90;99.90;;;;;;4934152;29;20053;-93
2020/12/17 06:51:28;;;;;;;12.18;6.75;;;9.90;99.90;;;;;;4911779;29;20040;-94
2020/12/17 06:53:55;;;;;;;12.52;8.20;;;9.80;99.90;;;;;;4911334;29;20028;-92
2020/12/17 06:56:26;;;;;;;16.63;8.75;;;9.70;99.90;;;;;;4908939;29;20493;-91
2020/12/17 06:59:17;;;;;;;11.90;8.48;;;9.70;99.90;;;;;;4923621;29;20040;-92
2020/12/17 07:01:49;;;;;;;15.32;8.88;;;9.70;99.90;;;;;;4924818;29;20028;-94
2020/12/17 07:04:41;;;;;;;10.75;8.45;;;9.70;99.90;;;;;;4927925;29;20052;-94
2020/12/17 07:07:08;;;;;;;11.80;8.65;;;9.60;99.90;;;;;;4918094;29;20059;-91
2020/12/17 07:10:06;;;;;;;14.95;8.95;;;9.60;99.90;;;;;;4930305;29;20043;-91
2020/12/17 07:12:35;;;;;;;14.23;8.75;;;9.60;99.90;;;;;;4920762;29;20040;-90
2020/12/17 07:15:12;;;;;;;15.52;9.27;;;9.60;99.90;;;;;;4921046;29;20134;-91
2020/12/17 07:17:46;;;;;;;19.90;9.38;;;9.50;99.90;;;;;;4907440;29;20040;-91
2020/12/17 07:20:30;;;;;;;16.23;9.07;;;9.50;99.90;;;;;;4906635;29;20364;-92
2020/12/17 07:23:20;;;;;;;15.85;9.98;;;9.50;99.90;;;;;;4938008;29;20032;-91
2020/12/17 07:25:51;;;;;;;18.95;10.68;;;9.40;99.90;;;;;;4942977;29;20028;-92
2020/12/17 07:31:54;;;;;;;16.65;9.48;;;9.40;99.90;;;;;;4858418;29;20120;-90
2020/12/17 07:34:22;;;;;;;14.55;9.45;;;9.50;99.90;;;;;;4851479;29;20061;-89
2020/12/17 07:36:49;;;;;;;16.85;10.10;;;9.50;99.90;;;;;;4865667;29;20201;-89
2020/12/17 07:39:18;;;;;;;15.88;10.20;;;9.40;99.90;;;;;;4866480;29;20056;-89
2020/12/17 07:41:44;;;;;;;15.70;9.27;;;9.40;99.90;;;;;;4851083;29;20033;-89
2020/12/17 07:44:10;;;;;;;13.25;9.38;;;9.40;99.90;;;;;;4872953;29;20047;-87
2020/12/17 07:46:41;;;;;;;14.60;9.40;;;9.40;99.90;;;;;;4851528;29;20029;-86
2020/12/17 07:49:23;;;;;;;13.45;7.50;;;9.40;99.90;;;;;;4873029;29;20065;-87
2020/12/17 07:51:49;;;;;;;13.68;8.00;;;9.40;99.90;;;;;;4873670;29;20101;-86
2020/12/17 07:54:19;;;;;;;12.45;7.35;;;9.40;99.90;;;;;;4853597;29;20109;-86
2020/12/17 07:56:50;;;;;;;13.02;8.00;;;9.40;99.90;;;;;;4864155;29;20022;-86
2020/12/17 07:59:18;;;;;;;11.32;5.75;;;9.50;99.90;;;;;;4884138;29;20043;-86
2020/12/17 08:01:43;;;;;;;9.25;5.95;;;9.40;99.90;;;;;;4889337;29;20054;-88
2020/12/17 08:04:53;;;;;;;8.10;5.85;;;9.40;99.90;;;;;;4912822;29;20016;-91
2020/12/17 08:07:16;;;;;;;9.73;4.78;;;9.50;99.90;;;;;;4908985;29;20044;-88
2020/12/17 08:09:44;;;;;;;8.30;4.95;;;9.50;99.90;;;;;;4921756;29;20028;-89
2020/12/17 08:12:11;;;;;;;8.35;4.68;;;9.60;99.90;;;;;;4922220;29;20039;-90
2020/12/17 08:14:42;;;;;;;8.95;4.43;;;9.60;99.90;;;;;;4925560;29;20028;-87
2020/12/17 08:17:09;;;;;;;;;;;9.50;99.90;;;;;;4922611;29;20028;-88
2020/12/17 08:19:41;;;;;;;5.35;3.60;;;9.50;99.90;;;;;;4925651;29;19952;-89
2020/12/17 08:22:28;;;;;;;;;;;;;;;;;;;;;
2020/12/17 08:35:24;;;;;;;5.78;3.83;;;9.30;99.90;;;;;;4929361;29;20055;-83
2020/12/17 08:37:54;;;;;;;4.95;3.65;;;9.30;99.90;;;;;;4860054;29;20073;-85
2020/12/17 08:40:46;;;;;;;8.63;3.22;;;9.30;99.90;;;;;;4861724;29;20033;-85
2020/12/17 09:03:22;;;;;;;;;;;;;;;;;;;;;
2020/12/17 09:06:25;;;;;;;6.18;3.40;;;9.30;99.90;;;;;;4931786;29;20086;-87
2020/12/17 09:08:55;;;;;;;5.80;3.58;;;9.30;99.90;;;;;;4904388;29;20108;-87
2020/12/17 09:11:38;;;;;;;6.90;3.42;;;9.30;99.90;;;;;;4917258;29;20040;-87
2020/12/17 09:14:11;;;;;;;8.95;3.42;;;9.40;99.90;;;;;;4930047;29;20095;-88
2020/12/17 09:16:43;;;;;;;2.78;2.10;;;9.40;99.90;;;;;;4918368;29;20044;-88
2020/12/17 09:19:50;;;;;;;5.72;3.70;;;9.40;99.90;;;;;;4891376;29;20037;-85
2020/12/17 09:22:36;;;;;;;5.93;2.80;;;9.40;99.90;;;;;;4871687;29;20033;-87
2020/12/17 09:25:03;;;;;;;3.63;2.65;;;9.40;99.90;;;;;;4869137;29;20073;-86
2020/12/17 09:27:45;;;;;;;4.65;3.03;;;9.50;99.90;;;;;;4861894;29;20137;-86
2020/12/17 09:30:19;;;;;;;6.30;3.08;;;9.60;99.90;;;;;;4849336;29;20034;-87
2020/12/17 09:33:24;;;;;;;7.07;2.60;;;9.60;99.90;;;;;;4872875;29;20041;-86
2020/12/17 09:36:20;;;;;;;4.78;2.42;;;9.70;99.90;;;;;;4808393;29;20023;-91
2020/12/17 09:38:59;;;;;;;7.43;3.50;;;9.90;99.90;;;;;;4806240;29;20051;-86
2020/12/17 09:41:28;;;;;;;8.27;2.95;;;9.90;99.90;;;;;;4803230;30;20039;-87
2020/12/17 09:44:09;;;;;;;5.50;2.72;;;10.00;99.90;;;;;;4792949;29;20039;-88
2020/12/17 09:50:13;;;;;;;10.82;2.45;;;10.10;99.90;;;;;;4798036;29;20104;-90
2020/12/17 09:52:44;;;;;;;5.88;3.08;;;10.20;99.90;;;;;;4811310;29;20027;-91
2020/12/17 10:15:54;;;;;;;2.75;2.25;;;10.50;99.90;;;;;;5740735;23;20046;-88
2020/12/17 10:18:21;;;;;;;5.70;2.15;;;10.50;99.90;;;;;;4955609;29;20107;-88
2020/12/17 10:20:48;;;;;;;3.83;2.20;;;10.60;99.90;;;;;;4909081;29;20055;-86
2020/12/17 10:59:07;;;;;;;2.55;1.60;;;11.10;99.90;;;;;;4991488;23;20070;-88
2020/12/17 11:01:36;;;;;;;4.78;1.50;;;11.10;99.90;;;;;;4952668;28;20030;-86
2020/12/17 11:47:23;;;;;;;;;;;;;;;;;;;;;
2020/12/17 12:00:16;;;;;;;6.50;2.40;;;11.30;99.90;;;;;;5671801;23;20036;-89
2020/12/17 12:02:49;;;;;;;10.82;4.13;;;11.30;99.90;;;;;;4905008;29;20120;-88
2020/12/17 12:05:19;;;;;;;7.57;2.15;;;11.40;99.90;;;;;;4919125;29;20104;-90
2020/12/17 12:07:46;;;;;;;12.18;2.80;;;11.60;99.90;;;;;;4904873;29;20061;-91
2020/12/17 12:12:50;;;;;;;6.28;2.90;;;11.90;99.90;;;;;;5092480;23;20043;-93
2020/12/17 12:15:55;;;;;;;;;;;;;;;;;;;;;
2020/12/17 14:46:48;;;;;;;5.35;1.85;;;10.80;99.90;;;;;;5570422;23;20138;-89
2020/12/17 14:49:14;;;;;;;3.67;1.67;;;10.70;99.90;;;;;;4916667;29;20106;-95
2020/12/17 14:51:44;;;;;;;4.00;1.58;;;10.70;99.90;;;;;;4939431;29;20029;-95
2020/12/17 14:54:15;;;;;;;2.20;1.75;;;10.70;99.90;;;;;;5045222;23;20071;-94
2020/12/17 14:59:29;;;;;;;2.97;1.55;;;10.50;99.90;;;;;;5001169;23;20063;-87
2020/12/17 15:58:30;;;;;;;10.00;4.78;;;8.90;99.90;;;;;;4874828;29;20109;-88
2020/12/17 16:00:57;;;;;;;11.68;3.75;;;8.90;99.90;;;;;;4867878;29;20038;-84
2020/12/17 17:07:46;;;;;;;10.05;4.05;;;8.40;99.90;;;;;;5241296;23;20055;-95
2020/12/17 17:10:14;;;;;;;12.35;4.68;;;8.50;99.90;;;;;;4961481;29;20035;-92
2020/12/17 17:15:17;;;;;;;8.90;4.45;;;8.70;99.90;;;;;;4984274;23;20053;-94
2020/12/17 17:17:49;;;;;;;10.90;3.53;;;8.70;99.90;;;;;;4993173;28;20026;-92
2020/12/17 17:20:37;;;;;;;9.10;4.20;;;8.70;99.90;;;;;;4975967;28;20344;-96
2020/12/17 17:33:56;;;;;;;10.55;4.80;;;9.10;99.90;;;;;;4994037;23;20043;-93
2020/12/17 17:42:03;;;;;;;;;;;;;;;;;;;;;
2020/12/17 17:58:07;;;;;;;6.15;3.08;;;9.30;99.90;;;;;;5509271;23;20039;-95
2020/12/17 18:04:07;;;;;;;;;;;;;;;;;;;;;
2020/12/17 18:07:05;;;;;;;;;;;;;;;;;;;;;
2020/12/17 18:09:57;;;;;;;6.47;3.25;;;8.70;99.90;;;;;;4958491;29;20047;-95
2020/12/17 18:28:02;;;;;;;13.55;4.47;;;7.80;99.90;;;;;;4999934;23;20063;-94
2020/12/17 18:30:30;;;;;;;12.15;4.68;;;7.80;99.90;;;;;;4988199;28;20054;-96
2020/12/17 18:33:01;;;;;;;5.53;3.53;;;7.80;99.90;;;;;;4996332;28;20368;-94
2020/12/17 18:35:30;;;;;;;5.38;3.08;;;7.90;99.90;;;;;;4984937;28;20042;-96
2020/12/17 18:37:57;;;;;;;14.25;4.45;;;8.00;99.90;;;;;;4989913;28;20049;-96
2020/12/17 18:40:24;;;;;;;5.38;3.33;;;8.20;99.90;;;;;;4992085;28;20023;-96
2020/12/17 18:48:02;;;;;;;6.57;4.22;;;8.20;99.90;;;;;;5263091;23;20079;-95
2020/12/17 18:50:32;;;;;;;9.75;4.68;;;8.20;99.90;;;;;;5070951;23;20046;-95
2020/12/17 18:53:16;;;;;;;6.80;4.28;;;8.10;99.90;;;;;;5019182;28;20014;-96
2020/12/17 18:55:43;;;;;;;7.90;4.28;;;8.10;99.90;;;;;;5018671;28;20065;-94
2020/12/17 18:58:10;;;;;;;11.23;4.90;;;8.10;99.90;;;;;;4997794;28;20050;-95
2020/12/17 19:00:36;;;;;;;11.88;4.70;;;8.10;99.90;;;;;;4981536;28;20059;-95
2020/12/17 19:03:02;;;;;;;10.20;4.90;;;8.10;99.90;;;;;;4981835;28;20026;-93
2020/12/17 19:05:33;;;;;;;11.05;4.13;;;8.20;99.90;;;;;;4995780;28;20015;-95
2020/12/17 19:08:02;;;;;;;10.70;4.72;;;8.30;99.90;;;;;;4978808;28;20031;-94
2020/12/17 19:10:28;;;;;;;6.07;4.05;;;8.40;99.90;;;;;;4976375;28;20042;-95
2020/12/17 19:12:55;;;;;;;19.27;7.15;;;8.50;99.90;;;;;;4957342;28;20039;-95
2020/12/17 19:15:25;;;;;;;9.52;4.80;;;8.50;99.90;;;;;;4951408;29;20085;-95
2020/12/17 19:17:52;;;;;;;11.95;4.97;;;8.50;99.90;;;;;;4948439;29;20058;-95
2020/12/17 19:20:18;;;;;;;13.88;7.05;;;8.50;99.90;;;;;;4949370;29;20144;-94
2020/12/17 19:22:44;;;;;;;9.60;4.22;;;8.50;99.90;;;;;;4949324;29;20085;-96
2020/12/17 19:25:16;;;;;;;12.10;6.10;;;8.60;99.90;;;;;;4937745;29;20047;-95
2020/12/17 19:27:48;;;;;;;13.48;5.95;;;8.60;99.90;;;;;;4958088;29;20033;-94
2020/12/17 19:30:16;;;;;;;13.07;6.45;;;8.50;99.90;;;;;;4953995;29;20050;-94
2020/12/17 19:32:52;;;;;;;8.50;4.93;;;8.50;99.90;;;;;;4971109;28;20051;-96
2020/12/17 19:35:25;;;;;;;9.27;4.63;;;8.40;99.90;;;;;;4937894;29;20036;-93
2020/12/17 19:38:24;;;;;;;10.85;5.15;;;8.40;99.90;;;;;;4943898;29;20115;-92
2020/12/17 19:40:44;;;;;;;13.35;5.30;;;8.40;99.90;;;;;;4932231;29;20036;-94
2020/12/17 19:44:03;;;;;;;7.25;3.60;;;8.40;99.90;;;;;;4939822;29;20162;-95
2020/12/17 19:46:55;;;;;;;9.90;4.72;;;8.40;99.90;;;;;;4965194;23;20039;-93
2020/12/17 19:49:31;;;;;;;9.30;4.15;;;8.40;99.90;;;;;;4949981;29;20054;-96
2020/12/17 19:52:07;;;;;;;9.73;3.75;;;8.50;99.90;;;;;;4935605;29;20035;-96
2020/12/17 19:57:40;;;;;;;7.65;3.88;;;8.40;99.90;;;;;;4925907;29;20070;-96
2020/12/17 20:00:18;;;;;;;8.63;4.07;;;8.40;99.90;;;;;;4913406;29;20035;-96
2020/12/17 20:06:08;;;;;;;8.00;4.15;;;8.40;99.90;;;;;;4965720;29;20035;-96
2020/12/17 20:08:47;;;;;;;11.38;4.15;;;8.40;99.90;;;;;;4934245;29;20043;-96
2020/12/17 20:11:19;;;;;;;6.20;3.67;;;8.40;99.90;;;;;;4951841;29;20055;-96
2020/12/17 20:14:08;;;;;;;;;;;;;;;;;;;;;
2020/12/17 20:16:43;;;;;;;7.30;3.47;;;8.50;99.90;;;;;;4950996;29;20058;-96
2020/12/17 20:23:32;;;;;;;;;;;;;;;;;;;;;
2020/12/17 20:26:01;;;;;;;8.05;4.18;;;8.50;99.90;;;;;;4878589;29;20055;-96
2020/12/17 20:29:03;;;;;;;6.93;3.80;;;8.40;99.90;;;;;;4902638;29;20025;-96
2020/12/17 20:31:31;;;;;;;5.55;3.03;;;8.30;99.90;;;;;;4944046;29;20035;-95
2020/12/17 20:34:06;;;;;;;7.70;3.45;;;8.40;99.90;;;;;;4914565;29;20048;-93
2020/12/17 20:37:04;;;;;;;8.50;4.13;;;8.30;99.90;;;;;;4903250;29;20024;-96
2020/12/17 20:42:27;;;;;;;;;;;;;;;;;;;;;
2020/12/17 20:45:06;;;;;;;4.50;2.97;;;7.90;99.90;;;;;;5074131;23;20063;-95
2020/12/17 21:12:52;;;;;;;;;;;7.10;99.90;;;;;;4948857;29;20047;-95
2020/12/17 21:15:24;;;;;;;9.05;4.53;;;7.10;99.90;;;;;;4948124;29;19914;-95
2020/12/17 21:17:50;;;;;;;9.43;4.93;;;7.00;99.90;;;;;;4956669;29;20030;-95
2020/12/17 21:20:15;;;;;;;8.88;4.70;;;7.00;99.90;;;;;;4955750;28;20036;-94
2020/12/17 21:22:42;;;;;;;10.10;5.05;;;6.90;99.90;;;;;;4958230;28;20052;-93
2020/12/17 21:25:11;;;;;;;8.27;4.88;;;6.90;99.90;;;;;;4958543;28;20028;-93
2020/12/17 21:27:37;;;;;;;9.15;4.97;;;6.80;99.90;;;;;;5029870;23;20328;-93
2020/12/17 21:30:14;;;;;;;9.55;4.18;;;6.80;99.90;;;;;;4957104;29;20058;-95
2020/12/17 21:33:02;;;;;;;13.15;5.75;;;6.90;99.90;;;;;;4956780;29;20047;-92
2020/12/17 21:35:35;;;;;;;11.75;4.03;;;6.80;99.90;;;;;;5030759;23;20239;-90
2020/12/17 21:38:32;;;;;;;15.82;8.05;;;6.90;99.90;;;;;;4991031;23;20131;-94
2020/12/17 21:43:33;;;;;;;12.73;5.78;;;6.70;99.90;;;;;;4994608;23;20099;-92
2020/12/17 21:46:25;;;;;;;11.63;6.03;;;6.70;99.90;;;;;;4940851;29;20032;-94
2020/12/17 21:48:55;;;;;;;15.50;8.52;;;6.60;99.90;;;;;;4942826;29;20131;-93
2020/12/17 21:51:39;;;;;;;10.65;6.70;;;6.60;99.90;;;;;;4941477;29;20031;-94
2020/12/17 21:54:23;;;;;;;14.18;7.18;;;6.50;99.90;;;;;;4932020;29;20035;-92
2020/12/17 21:57:04;;;;;;;12.45;5.07;;;6.50;99.90;;;;;;4933066;29;20151;-96
2020/12/17 21:59:35;;;;;;;9.43;5.50;;;6.40;99.90;;;;;;4924678;29;20039;-96
2020/12/17 22:02:25;;;;;;;;;;;;;;;;;;;;;
2020/12/17 22:05:11;;;;;;;11.63;5.30;;;6.40;99.90;;;;;;4953598;28;20062;-92
2020/12/17 22:07:40;;;;;;;9.02;4.63;;;6.50;99.90;;;;;;4955925;29;20023;-94
2020/12/17 22:10:22;;;;;;;9.52;4.38;;;6.50;99.90;;;;;;4951907;29;20031;-94